Terminal Aerodrome Forecast
Issued by NWS Wilmington, OH

Current Version | Previous Version | Text Only | Print | Product List | Glossary Off
Versions: 1 2 3 4 5 6 7 8 9 10 11 12 13 14 15 16 17 18 19 20

000
FTUS41 KILN 300100 AAA
TAFDAY
TAF AMD
KDAY 300156Z 3002/3024 15010G20KT 5SM -TSRA BKN050CB
     FM300220 17006KT P6SM SCT045 BKN200
     FM300400 17008KT P6SM SCT200
     FM301500 20010G16KT P6SM SCT045 BKN120
      TEMPO 3020/3022 -SHRA BKN040 OVC120
     FM302200 22011KT P6SM SCT040 OVC100=

USA.gov is the U.S. government's official web portal to all federal, state and local government web resources and services.